sensor_id;sensor_type;location;lat;lon;timestamp;pressure;altitude;pressure_sealevel;temperature;humidity
50859;BME280;36826;47.514;19.056;2023-02-11T00:01:07;102119.28;;;10.63;38.57
50859;BME280;36826;47.514;19.056;2023-02-11T00:03:32;102121.25;;;9.95;39.92
50859;BME280;36826;47.514;19.056;2023-02-11T00:06:02;102123.94;;;10.27;39.18
50859;BME280;36826;47.514;19.056;2023-02-11T00:08:28;102114.38;;;10.23;39.16
50859;BME280;36826;47.514;19.056;2023-02-11T00:10:54;102111.81;;;9.88;39.74
50859;BME280;36826;47.514;19.056;2023-02-11T00:13:20;102111.31;;;10.13;39.76
50859;BME280;36826;47.514;19.056;2023-02-11T00:15:46;102107.19;;;10.23;39.58
50859;BME280;36826;47.514;19.056;2023-02-11T00:18:11;102107.19;;;10.39;39.53
50859;BME280;36826;47.514;19.056;2023-02-11T00:20:39;102099.50;;;10.33;39.18
50859;BME280;36826;47.514;19.056;2023-02-11T00:23:05;102095.81;;;10.52;39.16
50859;BME280;36826;47.514;19.056;2023-02-11T00:25:30;102103.03;;;10.02;39.69
50859;BME280;36826;47.514;19.056;2023-02-11T00:27:56;102095.34;;;10.27;39.36
50859;BME280;36826;47.514;19.056;2023-02-11T00:30:21;102099.13;;;10.71;38.67
50859;BME280;36826;47.514;19.056;2023-02-11T00:32:46;102097.47;;;10.38;38.92
50859;BME280;36826;47.514;19.056;2023-02-11T00:35:12;102094.13;;;10.33;39.14
50859;BME280;36826;47.514;19.056;2023-02-11T00:37:37;102089.31;;;10.40;39.48
50859;BME280;36826;47.514;19.056;2023-02-11T00:40:03;102086.47;;;10.43;39.70
50859;BME280;36826;47.514;19.056;2023-02-11T00:42:29;102090.25;;;10.55;39.47
50859;BME280;36826;47.514;19.056;2023-02-11T00:44:54;102092.78;;;10.42;39.43
50859;BME280;36826;47.514;19.056;2023-02-11T00:47:19;102093.88;;;10.54;39.30
50859;BME280;36826;47.514;19.056;2023-02-11T00:49:45;102090.59;;;10.65;39.07
50859;BME280;36826;47.514;19.056;2023-02-11T00:52:10;102097.09;;;10.44;38.49
50859;BME280;36826;47.514;19.056;2023-02-11T00:54:35;102098.47;;;10.52;38.75
50859;BME280;36826;47.514;19.056;2023-02-11T00:57:01;102079.09;;;10.63;37.95
50859;BME280;36826;47.514;19.056;2023-02-11T00:59:26;102079.25;;;10.76;38.18
50859;BME280;36826;47.514;19.056;2023-02-11T01:01:52;102082.59;;;10.79;37.59
50859;BME280;36826;47.514;19.056;2023-02-11T01:04:17;102073.16;;;10.41;38.39
50859;BME280;36826;47.514;19.056;2023-02-11T01:06:43;102066.56;;;10.31;38.91
50859;BME280;36826;47.514;19.056;2023-02-11T01:09:08;102064.06;;;10.28;39.35
50859;BME280;36826;47.514;19.056;2023-02-11T01:11:33;102064.84;;;10.62;38.94
50859;BME280;36826;47.514;19.056;2023-02-11T01:13:58;102053.47;;;10.73;38.43
50859;BME280;36826;47.514;19.056;2023-02-11T01:16:24;102053.63;;;10.39;38.23
50859;BME280;36826;47.514;19.056;2023-02-11T01:18:49;102049.28;;;10.53;38.74
50859;BME280;36826;47.514;19.056;2023-02-11T01:21:14;102040.09;;;10.57;38.77
50859;BME280;36826;47.514;19.056;2023-02-11T01:23:40;102031.84;;;10.29;38.52
50859;BME280;36826;47.514;19.056;2023-02-11T01:26:05;102031.50;;;10.52;39.04
50859;BME280;36826;47.514;19.056;2023-02-11T01:28:31;102035.47;;;10.44;38.23
50859;BME280;36826;47.514;19.056;2023-02-11T01:30:56;102030.31;;;10.09;39.39
50859;BME280;36826;47.514;19.056;2023-02-11T01:33:22;102035.84;;;9.07;41.12
50859;BME280;36826;47.514;19.056;2023-02-11T01:35:48;102031.00;;;9.97;39.86
50859;BME280;36826;47.514;19.056;2023-02-11T01:38:17;102029.88;;;10.01;39.94
50859;BME280;36826;47.514;19.056;2023-02-11T01:40:51;102034.47;;;9.99;40.00
50859;BME280;36826;47.514;19.056;2023-02-11T01:43:17;102027.69;;;10.08;40.07
50859;BME280;36826;47.514;19.056;2023-02-11T01:48:17;102027.50;;;9.13;41.35
50859;BME280;36826;47.514;19.056;2023-02-11T01:50:43;102036.19;;;10.00;40.32
50859;BME280;36826;47.514;19.056;2023-02-11T01:53:09;102032.38;;;10.04;40.09
50859;BME280;36826;47.514;19.056;2023-02-11T01:55:54;102042.81;;;7.83;43.91
50859;BME280;36826;47.514;19.056;2023-02-11T01:58:40;102034.72;;;9.11;41.81
50859;BME280;36826;47.514;19.056;2023-02-11T02:01:06;102036.03;;;8.69;42.14
50859;BME280;36826;47.514;19.056;2023-02-11T02:03:32;102034.06;;;8.90;41.42
50859;BME280;36826;47.514;19.056;2023-02-11T02:11:07;102034.41;;;8.47;42.81
50859;BME280;36826;47.514;19.056;2023-02-11T02:13:33;102028.25;;;8.64;42.17
50859;BME280;36826;47.514;19.056;2023-02-11T02:15:59;102035.47;;;9.48;41.11
50859;BME280;36826;47.514;19.056;2023-02-11T02:33:52;102035.69;;;8.75;42.21
50859;BME280;36826;47.514;19.056;2023-02-11T02:36:23;102021.56;;;8.73;42.35
50859;BME280;36826;47.514;19.056;2023-02-11T02:38:55;102015.34;;;9.24;41.07
50859;BME280;36826;47.514;19.056;2023-02-11T02:41:29;102017.28;;;9.21;40.32
50859;BME280;36826;47.514;19.056;2023-02-11T02:43:56;102012.13;;;9.50;40.35
50859;BME280;36826;47.514;19.056;2023-02-11T02:46:23;102016.50;;;9.85;39.59
50859;BME280;36826;47.514;19.056;2023-02-11T02:48:49;102014.91;;;9.65;39.76
50859;BME280;36826;47.514;19.056;2023-02-11T02:56:38;102014.44;;;9.90;39.77
50859;BME280;36826;47.514;19.056;2023-02-11T03:01:46;102005.44;;;9.26;40.88
50859;BME280;36826;47.514;19.056;2023-02-11T03:09:12;102010.09;;;8.53;41.81
50859;BME280;36826;47.514;19.056;2023-02-11T03:11:38;102011.91;;;8.16;42.46
50859;BME280;36826;47.514;19.056;2023-02-11T03:14:04;102001.47;;;8.83;41.68
50859;BME280;36826;47.514;19.056;2023-02-11T03:16:30;102001.59;;;8.63;41.68
50859;BME280;36826;47.514;19.056;2023-02-11T03:19:02;101999.69;;;8.47;42.47
50859;BME280;36826;47.514;19.056;2023-02-11T03:21:30;101987.94;;;8.69;41.97
50859;BME280;36826;47.514;19.056;2023-02-11T03:23:59;101992.00;;;8.58;41.68
50859;BME280;36826;47.514;19.056;2023-02-11T03:29:02;101984.53;;;9.00;41.16
50859;BME280;36826;47.514;19.056;2023-02-11T03:31:36;101984.47;;;9.18;40.69
50859;BME280;36826;47.514;19.056;2023-02-11T03:36:51;101980.00;;;9.18;40.80
50859;BME280;36826;47.514;19.056;2023-02-11T03:39:17;101974.25;;;9.42;40.46
50859;BME280;36826;47.514;19.056;2023-02-11T03:41:43;101973.25;;;9.61;40.04
50859;BME280;36826;47.514;19.056;2023-02-11T03:44:10;101971.00;;;9.53;39.92
50859;BME280;36826;47.514;19.056;2023-02-11T03:46:37;101961.75;;;9.75;39.89
50859;BME280;36826;47.514;19.056;2023-02-11T03:49:11;101960.41;;;9.67;39.76
50859;BME280;36826;47.514;19.056;2023-02-11T03:51:37;101950.53;;;9.52;40.03
50859;BME280;36826;47.514;19.056;2023-02-11T03:54:05;101947.88;;;9.52;40.07
50859;BME280;36826;47.514;19.056;2023-02-11T03:56:35;101943.97;;;9.74;40.19
50859;BME280;36826;47.514;19.056;2023-02-11T03:59:02;101943.03;;;9.59;40.35
50859;BME280;36826;47.514;19.056;2023-02-11T04:01:28;101944.25;;;9.69;40.12
50859;BME280;36826;47.514;19.056;2023-02-11T04:03:53;101944.22;;;9.37;40.90
50859;BME280;36826;47.514;19.056;2023-02-11T04:06:19;101934.31;;;9.71;40.22
50859;BME280;36826;47.514;19.056;2023-02-11T04:08:44;101927.47;;;9.17;41.13
50859;BME280;36826;47.514;19.056;2023-02-11T04:11:09;101920.09;;;9.39;40.03
50859;BME280;36826;47.514;19.056;2023-02-11T04:13:34;101910.84;;;9.44;40.30
50859;BME280;36826;47.514;19.056;2023-02-11T04:16:00;101913.06;;;9.20;40.44
50859;BME280;36826;47.514;19.056;2023-02-11T04:18:25;101910.50;;;9.34;40.37
50859;BME280;36826;47.514;19.056;2023-02-11T04:20:50;101909.44;;;9.37;40.47
50859;BME280;36826;47.514;19.056;2023-02-11T04:23:16;101910.09;;;8.93;40.78
50859;BME280;36826;47.514;19.056;2023-02-11T04:25:41;101910.31;;;9.21;40.61
50859;BME280;36826;47.514;19.056;2023-02-11T04:28:07;101905.50;;;9.44;40.57
50859;BME280;36826;47.514;19.056;2023-02-11T04:30:32;101913.84;;;8.37;41.98
50859;BME280;36826;47.514;19.056;2023-02-11T04:32:57;101900.31;;;9.25;40.63
50859;BME280;36826;47.514;19.056;2023-02-11T04:35:23;101917.19;;;9.10;40.64
50859;BME280;36826;47.514;19.056;2023-02-11T04:37:48;101916.09;;;9.14;40.35
50859;BME280;36826;47.514;19.056;2023-02-11T04:40:13;101907.91;;;9.33;40.51
50859;BME280;36826;47.514;19.056;2023-02-11T04:42:39;101910.66;;;9.15;40.41
50859;BME280;36826;47.514;19.056;2023-02-11T04:45:04;101906.38;;;8.62;41.54
50859;BME280;36826;47.514;19.056;2023-02-11T04:47:31;101909.81;;;9.31;40.59
50859;BME280;36826;47.514;19.056;2023-02-11T04:49:57;101904.47;;;8.81;40.68
50859;BME280;36826;47.514;19.056;2023-02-11T04:52:22;101905.81;;;9.06;40.96
50859;BME280;36826;47.514;19.056;2023-02-11T04:54:47;101910.50;;;8.85;41.16
50859;BME280;36826;47.514;19.056;2023-02-11T04:57:13;101910.19;;;8.57;41.90
50859;BME280;36826;47.514;19.056;2023-02-11T04:59:38;101914.53;;;8.76;42.01
50859;BME280;36826;47.514;19.056;2023-02-11T05:02:04;101909.78;;;8.48;42.16
50859;BME280;36826;47.514;19.056;2023-02-11T05:04:29;101911.31;;;9.03;41.77
50859;BME280;36826;47.514;19.056;2023-02-11T05:06:55;101911.97;;;8.90;41.87
50859;BME280;36826;47.514;19.056;2023-02-11T05:09:20;101918.88;;;9.28;41.45
50859;BME280;36826;47.514;19.056;2023-02-11T05:11:45;101918.53;;;8.32;42.85
50859;BME280;36826;47.514;19.056;2023-02-11T05:14:11;101923.63;;;8.72;41.84
50859;BME280;36826;47.514;19.056;2023-02-11T05:16:36;101929.88;;;8.37;42.43
50859;BME280;36826;47.514;19.056;2023-02-11T05:19:01;101929.69;;;7.68;43.45
50859;BME280;36826;47.514;19.056;2023-02-11T05:21:26;101920.91;;;8.21;42.79
50859;BME280;36826;47.514;19.056;2023-02-11T05:23:52;101919.56;;;8.47;42.51
50859;BME280;36826;47.514;19.056;2023-02-11T05:26:17;101920.84;;;7.49;44.08
50859;BME280;36826;47.514;19.056;2023-02-11T05:28:43;101921.03;;;7.63;43.93
50859;BME280;36826;47.514;19.056;2023-02-11T05:31:08;101914.53;;;8.23;43.02
50859;BME280;36826;47.514;19.056;2023-02-11T05:33:34;101912.50;;;7.93;42.72
50859;BME280;36826;47.514;19.056;2023-02-11T05:36:04;101904.91;;;8.89;41.63
50859;BME280;36826;47.514;19.056;2023-02-11T05:38:30;101904.50;;;8.64;41.47
50859;BME280;36826;47.514;19.056;2023-02-11T05:40:55;101908.59;;;8.18;42.49
50859;BME280;36826;47.514;19.056;2023-02-11T05:43:20;101902.31;;;6.88;44.43
50859;BME280;36826;47.514;19.056;2023-02-11T05:45:46;101892.25;;;8.24;42.84
50859;BME280;36826;47.514;19.056;2023-02-11T05:48:11;101904.63;;;7.90;43.22
50859;BME280;36826;47.514;19.056;2023-02-11T05:50:36;101901.16;;;7.88;42.91
50859;BME280;36826;47.514;19.056;2023-02-11T05:53:02;101899.19;;;7.74;42.61
50859;BME280;36826;47.514;19.056;2023-02-11T05:55:27;101893.56;;;7.98;42.58
50859;BME280;36826;47.514;19.056;2023-02-11T05:57:52;101896.25;;;8.16;42.43
50859;BME280;36826;47.514;19.056;2023-02-11T06:00:18;101898.06;;;8.15;42.29
50859;BME280;36826;47.514;19.056;2023-02-11T06:02:43;101896.50;;;8.28;42.08
50859;BME280;36826;47.514;19.056;2023-02-11T06:05:08;101904.78;;;8.22;42.25
50859;BME280;36826;47.514;19.056;2023-02-11T06:07:33;101909.34;;;8.20;42.83
50859;BME280;36826;47.514;19.056;2023-02-11T06:09:59;101902.41;;;8.86;41.55
50859;BME280;36826;47.514;19.056;2023-02-11T06:12:24;101908.22;;;9.11;41.03
50859;BME280;36826;47.514;19.056;2023-02-11T06:14:50;101900.50;;;9.54;40.40
50859;BME280;36826;47.514;19.056;2023-02-11T06:17:16;101900.31;;;9.73;40.67
50859;BME280;36826;47.514;19.056;2023-02-11T06:19:41;101896.09;;;9.53;40.29
50859;BME280;36826;47.514;19.056;2023-02-11T06:22:06;101898.38;;;9.11;40.97
50859;BME280;36826;47.514;19.056;2023-02-11T06:24:32;101894.09;;;9.73;40.77
50859;BME280;36826;47.514;19.056;2023-02-11T06:26:57;101889.13;;;9.97;39.85
50859;BME280;36826;47.514;19.056;2023-02-11T06:29:22;101887.88;;;9.08;41.01
50859;BME280;36826;47.514;19.056;2023-02-11T06:31:47;101886.59;;;9.63;40.96
50859;BME280;36826;47.514;19.056;2023-02-11T06:34:13;101886.56;;;9.79;40.60
50859;BME280;36826;47.514;19.056;2023-02-11T06:36:38;101886.50;;;10.11;40.21
50859;BME280;36826;47.514;19.056;2023-02-11T06:39:04;101887.63;;;12.73;36.82
50859;BME280;36826;47.514;19.056;2023-02-11T06:41:30;101879.22;;;15.73;33.02
50859;BME280;36826;47.514;19.056;2023-02-11T06:43:56;101866.38;;;17.53;30.84
50859;BME280;36826;47.514;19.056;2023-02-11T06:46:21;101870.66;;;18.44;28.81
50859;BME280;36826;47.514;19.056;2023-02-11T06:48:47;101870.44;;;18.75;27.50
50859;BME280;36826;47.514;19.056;2023-02-11T06:51:12;101871.22;;;18.95;27.59
50859;BME280;36826;47.514;19.056;2023-02-11T06:53:39;101868.25;;;20.16;26.59
50859;BME280;36826;47.514;19.056;2023-02-11T06:56:06;101863.88;;;20.76;25.62
50859;BME280;36826;47.514;19.056;2023-02-11T06:58:31;101871.56;;;19.10;27.00
50859;BME280;36826;47.514;19.056;2023-02-11T07:00:57;101871.97;;;17.90;27.88
50859;BME280;36826;47.514;19.056;2023-02-11T07:03:22;101862.13;;;17.60;28.25
50859;BME280;36826;47.514;19.056;2023-02-11T07:05:47;101866.09;;;17.46;28.82
50859;BME280;36826;47.514;19.056;2023-02-11T07:08:13;101868.44;;;16.26;29.43
50859;BME280;36826;47.514;19.056;2023-02-11T07:10:38;101872.13;;;15.05;30.93
50859;BME280;36826;47.514;19.056;2023-02-11T07:13:03;101871.25;;;13.52;33.23
50859;BME280;36826;47.514;19.056;2023-02-11T07:15:29;101875.22;;;13.09;34.14
50859;BME280;36826;47.514;19.056;2023-02-11T07:17:54;101868.16;;;12.82;34.54
50859;BME280;36826;47.514;19.056;2023-02-11T07:20:19;101864.81;;;14.26;33.77
50859;BME280;36826;47.514;19.056;2023-02-11T07:22:44;101867.03;;;16.11;30.87
50859;BME280;36826;47.514;19.056;2023-02-11T07:25:10;101877.25;;;19.62;27.44
50859;BME280;36826;47.514;19.056;2023-02-11T07:27:35;101865.69;;;20.67;26.31
50859;BME280;36826;47.514;19.056;2023-02-11T07:30:00;101871.06;;;21.96;25.33
50859;BME280;36826;47.514;19.056;2023-02-11T07:32:26;101872.63;;;23.59;23.33
50859;BME280;36826;47.514;19.056;2023-02-11T07:34:51;101864.78;;;25.96;21.38
50859;BME280;36826;47.514;19.056;2023-02-11T07:37:17;101860.03;;;27.73;20.11
50859;BME280;36826;47.514;19.056;2023-02-11T07:39:42;101861.47;;;29.92;18.56
50859;BME280;36826;47.514;19.056;2023-02-11T07:42:08;101847.63;;;28.96;18.39
50859;BME280;36826;47.514;19.056;2023-02-11T07:44:33;101846.66;;;24.85;20.70
50859;BME280;36826;47.514;19.056;2023-02-11T07:46:59;101844.00;;;22.76;22.15
50859;BME280;36826;47.514;19.056;2023-02-11T07:49:24;101839.13;;;20.35;24.25
50859;BME280;36826;47.514;19.056;2023-02-11T07:51:50;101840.19;;;18.97;25.36
50859;BME280;36826;47.514;19.056;2023-02-11T07:54:15;101840.31;;;17.81;26.47
50859;BME280;36826;47.514;19.056;2023-02-11T07:56:40;101840.53;;;17.09;27.45
50859;BME280;36826;47.514;19.056;2023-02-11T07:59:06;101841.88;;;16.94;27.18
50859;BME280;36826;47.514;19.056;2023-02-11T08:01:31;101837.59;;;16.60;27.91
50859;BME280;36826;47.514;19.056;2023-02-11T08:03:57;101834.91;;;16.39;27.93
50859;BME280;36826;47.514;19.056;2023-02-11T08:06:24;101832.13;;;16.50;28.20
50859;BME280;36826;47.514;19.056;2023-02-11T08:08:49;101836.38;;;16.43;28.30
50859;BME280;36826;47.514;19.056;2023-02-11T08:11:16;101836.50;;;16.20;27.92
50859;BME280;36826;47.514;19.056;2023-02-11T08:13:42;101838.22;;;16.21;28.24
50859;BME280;36826;47.514;19.056;2023-02-11T08:16:07;101835.06;;;16.68;28.03
50859;BME280;36826;47.514;19.056;2023-02-11T08:18:32;101838.97;;;16.85;27.98
50859;BME280;36826;47.514;19.056;2023-02-11T08:21:05;101842.69;;;16.53;27.73
50859;BME280;36826;47.514;19.056;2023-02-11T08:23:30;101834.84;;;16.91;27.81
50859;BME280;36826;47.514;19.056;2023-02-11T08:25:59;101842.13;;;16.60;28.02
50859;BME280;36826;47.514;19.056;2023-02-11T08:28:24;101837.34;;;16.73;27.66
50859;BME280;36826;47.514;19.056;2023-02-11T08:30:50;101834.94;;;16.70;27.98
50859;BME280;36826;47.514;19.056;2023-02-11T08:33:15;101837.53;;;16.50;27.80
50859;BME280;36826;47.514;19.056;2023-02-11T08:35:40;101837.78;;;16.16;27.69
50859;BME280;36826;47.514;19.056;2023-02-11T08:38:06;101840.22;;;16.19;28.37
50859;BME280;36826;47.514;19.056;2023-02-11T08:40:31;101844.66;;;16.51;28.26
50859;BME280;36826;47.514;19.056;2023-02-11T08:42:56;101841.88;;;16.10;27.87
50859;BME280;36826;47.514;19.056;2023-02-11T08:45:22;101837.00;;;16.56;27.66
50859;BME280;36826;47.514;19.056;2023-02-11T08:47:47;101842.78;;;16.21;28.35
50859;BME280;36826;47.514;19.056;2023-02-11T08:50:12;101830.91;;;16.33;28.39
50859;BME280;36826;47.514;19.056;2023-02-11T08:52:38;101829.97;;;17.06;27.29
50859;BME280;36826;47.514;19.056;2023-02-11T08:55:03;101832.41;;;17.19;27.46
50859;BME280;36826;47.514;19.056;2023-02-11T08:57:28;101829.28;;;17.14;27.36
50859;BME280;36826;47.514;19.056;2023-02-11T08:59:54;101829.69;;;17.09;27.28
50859;BME280;36826;47.514;19.056;2023-02-11T09:02:19;101823.44;;;17.38;27.29
50859;BME280;36826;47.514;19.056;2023-02-11T09:04:44;101824.63;;;17.75;26.76
50859;BME280;36826;47.514;19.056;2023-02-11T09:07:10;101823.16;;;18.20;26.57
50859;BME280;36826;47.514;19.056;2023-02-11T09:09:36;101826.06;;;18.56;26.02
50859;BME280;36826;47.514;19.056;2023-02-11T09:12:01;101814.75;;;19.44;25.52
50859;BME280;36826;47.514;19.056;2023-02-11T09:14:27;101806.00;;;20.13;24.60
50859;BME280;36826;47.514;19.056;2023-02-11T09:16:53;101814.63;;;20.69;24.42
50859;BME280;36826;47.514;19.056;2023-02-11T09:19:19;101806.34;;;21.22;23.87
50859;BME280;36826;47.514;19.056;2023-02-11T09:21:44;101801.81;;;21.97;23.55
50859;BME280;36826;47.514;19.056;2023-02-11T09:24:10;101807.19;;;22.95;22.44
50859;BME280;36826;47.514;19.056;2023-02-11T09:26:35;101805.78;;;23.62;21.81
50859;BME280;36826;47.514;19.056;2023-02-11T09:29:02;101798.94;;;24.49;21.28
50859;BME280;36826;47.514;19.056;2023-02-11T09:31:28;101794.13;;;26.05;20.06
50859;BME280;36826;47.514;19.056;2023-02-11T09:33:55;101789.16;;;24.70;20.42
50859;BME280;36826;47.514;19.056;2023-02-11T09:36:22;101792.91;;;23.48;21.22
50859;BME280;36826;47.514;19.056;2023-02-11T09:38:48;101798.97;;;23.58;21.63
50859;BME280;36826;47.514;19.056;2023-02-11T09:44:02;101788.81;;;23.43;21.85
50859;BME280;36826;47.514;19.056;2023-02-11T09:46:30;101778.47;;;24.15;21.50
50859;BME280;36826;47.514;19.056;2023-02-11T09:48:56;101790.44;;;24.74;20.95
50859;BME280;36826;47.514;19.056;2023-02-11T09:53:56;101782.59;;;24.11;21.18
50859;BME280;36826;47.514;19.056;2023-02-11T09:56:25;101776.25;;;23.03;21.62
50859;BME280;36826;47.514;19.056;2023-02-11T09:58:51;101769.78;;;23.50;21.54
50859;BME280;36826;47.514;19.056;2023-02-11T10:09:24;101772.00;;;21.63;23.31
50859;BME280;36826;47.514;19.056;2023-02-11T10:22:05;101752.63;;;20.81;24.37
50859;BME280;36826;47.514;19.056;2023-02-11T10:24:33;101746.94;;;19.43;25.18
50859;BME280;36826;47.514;19.056;2023-02-11T10:26:59;101752.25;;;19.26;25.29
50859;BME280;36826;47.514;19.056;2023-02-11T10:29:34;101737.28;;;20.11;25.45
50859;BME280;36826;47.514;19.056;2023-02-11T10:32:00;101737.09;;;20.39;25.75
50859;BME280;36826;47.514;19.056;2023-02-11T10:34:28;101734.00;;;21.69;24.92
50859;BME280;36826;47.514;19.056;2023-02-11T10:36:53;101731.25;;;21.77;24.62
50859;BME280;36826;47.514;19.056;2023-02-11T10:39:19;101734.69;;;21.88;24.08
50859;BME280;36826;47.514;19.056;2023-02-11T10:41:46;101728.34;;;21.13;24.51
50859;BME280;36826;47.514;19.056;2023-02-11T10:46:48;101719.53;;;20.68;24.99
50859;BME280;36826;47.514;19.056;2023-02-11T10:49:33;101722.16;;;20.43;25.08
50859;BME280;36826;47.514;19.056;2023-02-11T10:54:39;101706.72;;;21.20;24.50
50859;BME280;36826;47.514;19.056;2023-02-11T10:57:05;101703.84;;;21.79;24.33
50859;BME280;36826;47.514;19.056;2023-02-11T10:59:36;101708.59;;;21.27;24.54
50859;BME280;36826;47.514;19.056;2023-02-11T11:02:05;101702.47;;;21.75;24.27
50859;BME280;36826;47.514;19.056;2023-02-11T11:04:44;101696.34;;;21.81;24.40
50859;BME280;36826;47.514;19.056;2023-02-11T11:07:20;101688.31;;;21.55;24.21
50859;BME280;36826;47.514;19.056;2023-02-11T11:09:50;101682.00;;;21.05;24.62
50859;BME280;36826;47.514;19.056;2023-02-11T11:12:23;101694.47;;;21.32;24.44
50859;BME280;36826;47.514;19.056;2023-02-11T11:14:59;101678.78;;;21.59;24.26
50859;BME280;36826;47.514;19.056;2023-02-11T11:17:25;101678.75;;;21.75;24.04
50859;BME280;36826;47.514;19.056;2023-02-11T11:20:10;101683.56;;;21.15;24.47
50859;BME280;36826;47.514;19.056;2023-02-11T11:22:37;101680.44;;;20.77;25.24
50859;BME280;36826;47.514;19.056;2023-02-11T11:25:03;101681.34;;;20.51;25.12
50859;BME280;36826;47.514;19.056;2023-02-11T11:27:28;101665.56;;;19.59;25.89
50859;BME280;36826;47.514;19.056;2023-02-11T11:29:54;101663.28;;;19.46;26.19
50859;BME280;36826;47.514;19.056;2023-02-11T11:32:24;101656.34;;;19.08;26.26
50859;BME280;36826;47.514;19.056;2023-02-11T11:34:51;101658.19;;;19.25;26.12
50859;BME280;36826;47.514;19.056;2023-02-11T11:42:40;101633.63;;;20.22;25.48
50859;BME280;36826;47.514;19.056;2023-02-11T11:47:47;101629.63;;;20.43;25.34
50859;BME280;36826;47.514;19.056;2023-02-11T11:55:18;101615.97;;;20.18;24.89
50859;BME280;36826;47.514;19.056;2023-02-11T11:57:45;101627.25;;;19.97;24.53
50859;BME280;36826;47.514;19.056;2023-02-11T12:00:25;101626.56;;;20.38;24.69
50859;BME280;36826;47.514;19.056;2023-02-11T12:15:54;101582.41;;;20.85;24.09
50859;BME280;36826;47.514;19.056;2023-02-11T12:21:22;101559.56;;;21.36;23.55
50859;BME280;36826;47.514;19.056;2023-02-11T12:26:30;101555.88;;;21.04;23.25
50859;BME280;36826;47.514;19.056;2023-02-11T12:29:12;101548.03;;;20.93;23.56
50859;BME280;36826;47.514;19.056;2023-02-11T12:36:55;101550.03;;;21.24;23.29
50859;BME280;36826;47.514;19.056;2023-02-11T12:45:06;101523.63;;;19.74;23.82
50859;BME280;36826;47.514;19.056;2023-02-11T12:50:13;101521.28;;;19.44;23.93
50859;BME280;36826;47.514;19.056;2023-02-11T12:55:26;101516.66;;;20.14;23.58
50859;BME280;36826;47.514;19.056;2023-02-11T12:57:53;101515.25;;;20.02;23.49
50859;BME280;36826;47.514;19.056;2023-02-11T13:00:22;101505.78;;;20.14;23.43
50859;BME280;36826;47.514;19.056;2023-02-11T13:02:59;101513.56;;;19.66;23.91
50859;BME280;36826;47.514;19.056;2023-02-11T13:05:28;101515.47;;;19.74;23.52
50859;BME280;36826;47.514;19.056;2023-02-11T13:08:01;101523.41;;;20.02;23.36
50859;BME280;36826;47.514;19.056;2023-02-11T13:10:37;101506.50;;;19.39;23.92
50859;BME280;36826;47.514;19.056;2023-02-11T13:13:10;101499.75;;;19.51;23.44
50859;BME280;36826;47.514;19.056;2023-02-11T13:15:44;101494.16;;;19.87;23.18
50859;BME280;36826;47.514;19.056;2023-02-11T13:20:40;101489.00;;;19.84;23.20
50859;BME280;36826;47.514;19.056;2023-02-11T13:25:35;101482.66;;;20.27;23.46
50859;BME280;36826;47.514;19.056;2023-02-11T13:28:17;101469.72;;;20.12;23.15
50859;BME280;36826;47.514;19.056;2023-02-11T13:30:46;101455.44;;;20.10;22.95
50859;BME280;36826;47.514;19.056;2023-02-11T13:36:26;101469.28;;;19.82;23.42
50859;BME280;36826;47.514;19.056;2023-02-11T13:38:27;101467.66;;;19.98;23.09
50859;BME280;36826;47.514;19.056;2023-02-11T13:43:28;101465.47;;;20.10;23.22
50859;BME280;36826;47.514;19.056;2023-02-11T13:46:04;101462.91;;;19.91;23.22
50859;BME280;36826;47.514;19.056;2023-02-11T13:48:32;101467.25;;;19.84;23.40
50859;BME280;36826;47.514;19.056;2023-02-11T13:51:01;101466.03;;;19.27;23.89
50859;BME280;36826;47.514;19.056;2023-02-11T13:53:26;101464.16;;;19.71;23.76
50859;BME280;36826;47.514;19.056;2023-02-11T13:56:08;101474.06;;;19.80;23.55
50859;BME280;36826;47.514;19.056;2023-02-11T13:58:48;101477.31;;;19.41;24.08
50859;BME280;36826;47.514;19.056;2023-02-11T14:04:04;101489.00;;;19.84;23.71
50859;BME280;36826;47.514;19.056;2023-02-11T14:07:32;101484.75;;;19.82;23.65
50859;BME280;36826;47.514;19.056;2023-02-11T14:09:55;101466.13;;;19.52;24.13
50859;BME280;36826;47.514;19.056;2023-02-11T14:12:23;101452.72;;;20.02;23.99
50859;BME280;36826;47.514;19.056;2023-02-11T14:14:58;101456.78;;;19.98;23.73
50859;BME280;36826;47.514;19.056;2023-02-11T14:17:27;101447.59;;;19.99;23.80
50859;BME280;36826;47.514;19.056;2023-02-11T14:19:54;101453.06;;;20.15;23.58
50859;BME280;36826;47.514;19.056;2023-02-11T14:27:23;101480.31;;;20.32;24.02
50859;BME280;36826;47.514;19.056;2023-02-11T14:39:57;101490.50;;;19.78;24.55
50859;BME280;36826;47.514;19.056;2023-02-11T14:42:27;101487.19;;;19.50;24.79
50859;BME280;36826;47.514;19.056;2023-02-11T14:44:54;101482.22;;;19.11;24.58
50859;BME280;36826;47.514;19.056;2023-02-11T14:47:22;101482.31;;;19.27;24.78
50859;BME280;36826;47.514;19.056;2023-02-11T14:49:48;101491.69;;;18.62;25.46
50859;BME280;36826;47.514;19.056;2023-02-11T14:52:25;101472.53;;;19.43;24.81
50859;BME280;36826;47.514;19.056;2023-02-11T14:54:51;101475.78;;;19.12;25.32
50859;BME280;36826;47.514;19.056;2023-02-11T14:57:21;101472.78;;;19.23;24.66
50859;BME280;36826;47.514;19.056;2023-02-11T14:59:57;101458.91;;;19.35;24.98
50859;BME280;36826;47.514;19.056;2023-02-11T15:02:24;101466.88;;;19.71;24.67
50859;BME280;36826;47.514;19.056;2023-02-11T15:04:52;101450.75;;;19.77;24.70
50859;BME280;36826;47.514;19.056;2023-02-11T15:07:19;101444.22;;;19.45;25.31
50859;BME280;36826;47.514;19.056;2023-02-11T15:09:45;101438.47;;;19.14;24.97